GBAFG EGNV-EGNV
Flight info
| Callsign | GBAFG |
|---|---|
| Flight time | 0h 36m |
| Altitude | 3500 |
| Route | EGNV COASTLINE WITBY NORTHALLERTON EGNV |
| Aircraft | BE36/L-SBDFGM3RWXY/LB1 |
Departure
| Time | 2026-04-30 12:16 |
|---|---|
| Airport | Teesside International Airport (EGNV) |
Arrival
| Time | 2026-04-30 12:53 |
|---|---|
| Airport | Teesside International Airport (EGNV) |
| Time | Latitude | Longitude | Altitude | Speed | Heading |
|---|---|---|---|---|---|
| 2026-04-30 11:43 | 54.51394 | -1.42522 | 122 ft | 0 kts | 284° |
| 2026-04-30 11:55 | 54.51397 | -1.42545 | 122 ft | 9 kts | 283° |
| 2026-04-30 11:55 | 54.51422 | -1.42577 | 121 ft | 6 kts | 30° |
| 2026-04-30 11:55 | 54.51466 | -1.42556 | 121 ft | 8 kts | 11° |
| 2026-04-30 11:56 | 54.51526 | -1.42535 | 122 ft | 9 kts | 12° |
| 2026-04-30 11:56 | 54.51592 | -1.42511 | 122 ft | 10 kts | 13° |
| 2026-04-30 11:56 | 54.51643 | -1.42491 | 122 ft | 7 kts | 12° |
| 2026-04-30 11:56 | 54.51694 | -1.42472 | 122 ft | 8 kts | 12° |
| 2026-04-30 11:57 | 54.51753 | -1.42450 | 122 ft | 9 kts | 12° |
| 2026-04-30 11:57 | 54.51802 | -1.42385 | 122 ft | 9 kts | 71° |
| 2026-04-30 11:57 | 54.51811 | -1.42288 | 122 ft | 7 kts | 89° |
| 2026-04-30 11:57 | 54.51807 | -1.42213 | 122 ft | 6 kts | 101° |
| 2026-04-30 11:58 | 54.51800 | -1.42156 | 122 ft | 4 kts | 99° |
| 2026-04-30 11:58 | 54.51799 | -1.42117 | 120 ft | 3 kts | 93° |
| 2026-04-30 11:58 | 54.51799 | -1.42096 | 122 ft | 0 kts | 89° |
| 2026-04-30 11:59 | 54.51799 | -1.42091 | 122 ft | 3 kts | 89° |
| 2026-04-30 11:59 | 54.51796 | -1.42006 | 122 ft | 9 kts | 120° |
| 2026-04-30 11:59 | 54.51782 | -1.41953 | 121 ft | 0 kts | 40° |
| 2026-04-30 12:01 | 54.51805 | -1.41974 | 120 ft | 10 kts | 268° |
| 2026-04-30 12:02 | 54.51800 | -1.42126 | 122 ft | 13 kts | 270° |
| 2026-04-30 12:02 | 54.51799 | -1.42280 | 122 ft | 11 kts | 281° |
| 2026-04-30 12:02 | 54.51789 | -1.42413 | 121 ft | 12 kts | 235° |
| 2026-04-30 12:02 | 54.51721 | -1.42456 | 122 ft | 10 kts | 183° |
| 2026-04-30 12:03 | 54.51661 | -1.42476 | 122 ft | 8 kts | 191° |
| 2026-04-30 12:03 | 54.51556 | -1.42507 | 122 ft | 8 kts | 188° |
| 2026-04-30 12:03 | 54.51474 | -1.42538 | 121 ft | 17 kts | 192° |
| 2026-04-30 12:04 | 54.51352 | -1.42604 | 120 ft | 19 kts | 205° |
| 2026-04-30 12:04 | 54.51265 | -1.42745 | 122 ft | 17 kts | 240° |
| 2026-04-30 12:04 | 54.51205 | -1.42932 | 122 ft | 21 kts | 237° |
| 2026-04-30 12:04 | 54.51164 | -1.43059 | 120 ft | 0 kts | 240° |
| 2026-04-30 12:05 | 54.51141 | -1.43120 | 121 ft | 21 kts | 228° |
| 2026-04-30 12:05 | 54.51038 | -1.43220 | 120 ft | 11 kts | 238° |
| 2026-04-30 12:05 | 54.51027 | -1.43344 | 122 ft | 13 kts | 242° |
| 2026-04-30 12:06 | 54.50969 | -1.43480 | 120 ft | 15 kts | 234° |
| 2026-04-30 12:06 | 54.50907 | -1.43623 | 119 ft | 15 kts | 229° |
| 2026-04-30 12:06 | 54.50829 | -1.43728 | 121 ft | 14 kts | 210° |
| 2026-04-30 12:06 | 54.50749 | -1.43769 | 119 ft | 10 kts | 178° |
| 2026-04-30 12:07 | 54.50693 | -1.43803 | 121 ft | 9 kts | 223° |
| 2026-04-30 12:07 | 54.50650 | -1.43880 | 121 ft | 9 kts | 227° |
| 2026-04-30 12:07 | 54.50603 | -1.43966 | 121 ft | 12 kts | 227° |
| 2026-04-30 12:07 | 54.50537 | -1.44090 | 121 ft | 16 kts | 227° |
| 2026-04-30 12:08 | 54.50459 | -1.44222 | 119 ft | 16 kts | 210° |
| 2026-04-30 12:08 | 54.50401 | -1.44343 | 119 ft | 13 kts | 226° |
| 2026-04-30 12:08 | 54.50328 | -1.44370 | 119 ft | 10 kts | 163° |
| 2026-04-30 12:08 | 54.50316 | -1.44361 | 119 ft | 0 kts | 149° |
| 2026-04-30 12:14 | 54.50296 | -1.44339 | 120 ft | 9 kts | 143° |
| 2026-04-30 12:14 | 54.50285 | -1.44324 | 118 ft | 0 kts | 135° |
| 2026-04-30 12:15 | 54.50260 | -1.44280 | 120 ft | 15 kts | 128° |
| 2026-04-30 12:15 | 54.50278 | -1.44139 | 123 ft | 22 kts | 47° |
| 2026-04-30 12:15 | 54.50583 | -1.43583 | 147 ft | 91 kts | 57° |
| 2026-04-30 12:15 | 54.51045 | -1.42781 | 327 ft | 94 kts | 59° |
| 2026-04-30 12:16 | 54.51487 | -1.41890 | 490 ft | 103 kts | 58° |
| 2026-04-30 12:16 | 54.51972 | -1.41103 | 803 ft | 101 kts | 54° |
| 2026-04-30 12:16 | 54.52388 | -1.40117 | 984 ft | 104 kts | 74° |
| 2026-04-30 12:16 | 54.52489 | -1.38949 | 1314 ft | 97 kts | 93° |
| 2026-04-30 12:17 | 54.52577 | -1.36554 | 1950 ft | 101 kts | 91° |
| 2026-04-30 12:17 | 54.52605 | -1.35386 | 2311 ft | 96 kts | 94° |
| 2026-04-30 12:17 | 54.52674 | -1.34251 | 2513 ft | 99 kts | 96° |
| 2026-04-30 12:18 | 54.52752 | -1.33078 | 2777 ft | 98 kts | 95° |
| 2026-04-30 12:18 | 54.52839 | -1.31876 | 2987 ft | 102 kts | 95° |
| 2026-04-30 12:18 | 54.52957 | -1.30642 | 3148 ft | 108 kts | 92° |
| 2026-04-30 12:18 | 54.53124 | -1.29373 | 3343 ft | 114 kts | 88° |
| 2026-04-30 12:19 | 54.53320 | -1.28051 | 3565 ft | 115 kts | 88° |
| 2026-04-30 12:19 | 54.53608 | -1.26801 | 3902 ft | 109 kts | 80° |
| 2026-04-30 12:19 | 54.53890 | -1.25488 | 3805 ft | 134 kts | 82° |
| 2026-04-30 12:19 | 54.54232 | -1.23903 | 3764 ft | 143 kts | 81° |
| 2026-04-30 12:20 | 54.54585 | -1.22221 | 3779 ft | 157 kts | 80° |
| 2026-04-30 12:20 | 54.54825 | -1.21014 | 3784 ft | 164 kts | 81° |
| 2026-04-30 12:20 | 54.55192 | -1.19111 | 3775 ft | 169 kts | 81° |
| 2026-04-30 12:20 | 54.55553 | -1.17195 | 3778 ft | 167 kts | 81° |
| 2026-04-30 12:21 | 54.55904 | -1.15322 | 3775 ft | 160 kts | 82° |
| 2026-04-30 12:21 | 54.56237 | -1.13539 | 3770 ft | 156 kts | 82° |
| 2026-04-30 12:21 | 54.56565 | -1.11776 | 3764 ft | 151 kts | 83° |
| 2026-04-30 12:21 | 54.56881 | -1.10063 | 3769 ft | 149 kts | 82° |
| 2026-04-30 12:22 | 54.57197 | -1.08326 | 3774 ft | 153 kts | 82° |
| 2026-04-30 12:22 | 54.57508 | -1.06588 | 3766 ft | 154 kts | 84° |
| 2026-04-30 12:22 | 54.57819 | -1.04816 | 3780 ft | 154 kts | 85° |
| 2026-04-30 12:22 | 54.58097 | -1.03027 | 3777 ft | 153 kts | 91° |
| 2026-04-30 12:23 | 54.58218 | -1.01230 | 3788 ft | 150 kts | 97° |
| 2026-04-30 12:23 | 54.58362 | -0.99410 | 3780 ft | 154 kts | 89° |
| 2026-04-30 12:23 | 54.58589 | -0.97623 | 3781 ft | 151 kts | 92° |
| 2026-04-30 12:23 | 54.58437 | -0.95926 | 3791 ft | 141 kts | 115° |
| 2026-04-30 12:24 | 54.58126 | -0.94309 | 3788 ft | 143 kts | 115° |
| 2026-04-30 12:24 | 54.57811 | -0.92690 | 3793 ft | 146 kts | 116° |
| 2026-04-30 12:24 | 54.57489 | -0.91036 | 3770 ft | 145 kts | 115° |
| 2026-04-30 12:24 | 54.57169 | -0.89399 | 3718 ft | 142 kts | 115° |
| 2026-04-30 12:25 | 54.56868 | -0.87791 | 3665 ft | 140 kts | 116° |
| 2026-04-30 12:25 | 54.56604 | -0.86187 | 3604 ft | 139 kts | 114° |
| 2026-04-30 12:25 | 54.56326 | -0.84596 | 3597 ft | 140 kts | 116° |
| 2026-04-30 12:25 | 54.56043 | -0.83021 | 3597 ft | 136 kts | 115° |
| 2026-04-30 12:26 | 54.55765 | -0.81452 | 3596 ft | 137 kts | 115° |
| 2026-04-30 12:26 | 54.55477 | -0.79867 | 3592 ft | 139 kts | 116° |
| 2026-04-30 12:26 | 54.55202 | -0.78306 | 3598 ft | 138 kts | 115° |
| 2026-04-30 12:26 | 54.54922 | -0.76728 | 3598 ft | 136 kts | 115° |
| 2026-04-30 12:27 | 54.54643 | -0.75172 | 3586 ft | 135 kts | 115° |
| 2026-04-30 12:27 | 54.54357 | -0.73642 | 3582 ft | 134 kts | 115° |
| 2026-04-30 12:27 | 54.54012 | -0.72156 | 3531 ft | 131 kts | 128° |
| 2026-04-30 12:27 | 54.53475 | -0.70903 | 3498 ft | 130 kts | 131° |
| 2026-04-30 12:28 | 54.52929 | -0.69659 | 3498 ft | 129 kts | 131° |
| 2026-04-30 12:28 | 54.52394 | -0.68439 | 3497 ft | 129 kts | 131° |
| 2026-04-30 12:28 | 54.51855 | -0.67204 | 3494 ft | 129 kts | 131° |
| 2026-04-30 12:28 | 54.51318 | -0.65968 | 3495 ft | 129 kts | 131° |
| 2026-04-30 12:29 | 54.50781 | -0.64731 | 3495 ft | 129 kts | 131° |
| 2026-04-30 12:29 | 54.50243 | -0.63496 | 3506 ft | 129 kts | 131° |
| 2026-04-30 12:29 | 54.49712 | -0.62277 | 3506 ft | 129 kts | 131° |
| 2026-04-30 12:29 | 54.49170 | -0.61041 | 3503 ft | 129 kts | 131° |
| 2026-04-30 12:30 | 54.48600 | -0.59887 | 3506 ft | 124 kts | 148° |
| 2026-04-30 12:30 | 54.47742 | -0.59832 | 3505 ft | 137 kts | 199° |
| 2026-04-30 12:30 | 54.47162 | -0.61222 | 3513 ft | 158 kts | 247° |
| 2026-04-30 12:30 | 54.46978 | -0.63096 | 3515 ft | 161 kts | 251° |
| 2026-04-30 12:31 | 54.46791 | -0.65024 | 3503 ft | 167 kts | 252° |
| 2026-04-30 12:31 | 54.46591 | -0.67030 | 3465 ft | 173 kts | 251° |
| 2026-04-30 12:31 | 54.46388 | -0.69102 | 3349 ft | 178 kts | 251° |
| 2026-04-30 12:31 | 54.46183 | -0.71216 | 3275 ft | 179 kts | 251° |
| 2026-04-30 12:32 | 54.45973 | -0.73307 | 3195 ft | 176 kts | 252° |
| 2026-04-30 12:32 | 54.45774 | -0.75383 | 3122 ft | 175 kts | 252° |
| 2026-04-30 12:32 | 54.45559 | -0.77444 | 3045 ft | 175 kts | 251° |
| 2026-04-30 12:32 | 54.45353 | -0.79528 | 2963 ft | 177 kts | 252° |
| 2026-04-30 12:33 | 54.45138 | -0.81615 | 2894 ft | 177 kts | 251° |
| 2026-04-30 12:33 | 54.44930 | -0.83667 | 2817 ft | 175 kts | 251° |
| 2026-04-30 12:33 | 54.44717 | -0.85731 | 2731 ft | 175 kts | 251° |
| 2026-04-30 12:33 | 54.44501 | -0.87797 | 2662 ft | 177 kts | 252° |
| 2026-04-30 12:34 | 54.44274 | -0.89902 | 2582 ft | 180 kts | 251° |
| 2026-04-30 12:34 | 54.44037 | -0.92037 | 2480 ft | 178 kts | 249° |
| 2026-04-30 12:34 | 54.43659 | -0.93971 | 2419 ft | 167 kts | 235° |
| 2026-04-30 12:34 | 54.42983 | -0.95478 | 2331 ft | 158 kts | 218° |
| 2026-04-30 12:35 | 54.42401 | -0.97135 | 2257 ft | 165 kts | 231° |
| 2026-04-30 12:35 | 54.41891 | -0.98986 | 2170 ft | 177 kts | 242° |
| 2026-04-30 12:35 | 54.41514 | -1.01000 | 2136 ft | 174 kts | 245° |
| 2026-04-30 12:35 | 54.41161 | -1.02976 | 2154 ft | 173 kts | 244° |
| 2026-04-30 12:36 | 54.40809 | -1.04914 | 2195 ft | 170 kts | 244° |
| 2026-04-30 12:36 | 54.40467 | -1.06845 | 2261 ft | 169 kts | 245° |
| 2026-04-30 12:36 | 54.40121 | -1.08761 | 2312 ft | 167 kts | 245° |
| 2026-04-30 12:36 | 54.39785 | -1.10670 | 2359 ft | 165 kts | 245° |
| 2026-04-30 12:37 | 54.39443 | -1.12551 | 2403 ft | 164 kts | 243° |
| 2026-04-30 12:37 | 54.39113 | -1.14423 | 2455 ft | 163 kts | 243° |
| 2026-04-30 12:37 | 54.38774 | -1.16278 | 2498 ft | 162 kts | 245° |
| 2026-04-30 12:37 | 54.38460 | -1.18047 | 2556 ft | 154 kts | 244° |
| 2026-04-30 12:38 | 54.38133 | -1.19820 | 2595 ft | 156 kts | 243° |
| 2026-04-30 12:38 | 54.37806 | -1.21614 | 2683 ft | 156 kts | 244° |
| 2026-04-30 12:38 | 54.37474 | -1.23435 | 2816 ft | 162 kts | 244° |
| 2026-04-30 12:38 | 54.37145 | -1.25304 | 2980 ft | 165 kts | 243° |
| 2026-04-30 12:39 | 54.36805 | -1.27188 | 3190 ft | 168 kts | 243° |
| 2026-04-30 12:39 | 54.36458 | -1.29138 | 3359 ft | 170 kts | 243° |
| 2026-04-30 12:39 | 54.36093 | -1.31085 | 3471 ft | 174 kts | 243° |
| 2026-04-30 12:39 | 54.35724 | -1.33093 | 3479 ft | 183 kts | 244° |
| 2026-04-30 12:40 | 54.35354 | -1.35194 | 3476 ft | 184 kts | 247° |
| 2026-04-30 12:40 | 54.35283 | -1.37426 | 3477 ft | 191 kts | 269° |
| 2026-04-30 12:40 | 54.35646 | -1.39626 | 3474 ft | 194 kts | 289° |
| 2026-04-30 12:40 | 54.36423 | -1.41517 | 3469 ft | 194 kts | 312° |
| 2026-04-30 12:41 | 54.37524 | -1.42859 | 3463 ft | 195 kts | 334° |
| 2026-04-30 12:41 | 54.38815 | -1.43492 | 3466 ft | 193 kts | 356° |
| 2026-04-30 12:41 | 54.40138 | -1.43576 | 3494 ft | 193 kts | 2° |
| 2026-04-30 12:41 | 54.41479 | -1.43657 | 3493 ft | 193 kts | 2° |
| 2026-04-30 12:42 | 54.42782 | -1.43775 | 3553 ft | 180 kts | 359° |
| 2026-04-30 12:42 | 54.44077 | -1.44198 | 3292 ft | 204 kts | 344° |
| 2026-04-30 12:42 | 54.45388 | -1.45230 | 3177 ft | 206 kts | 334° |
| 2026-04-30 12:42 | 54.46571 | -1.46394 | 2954 ft | 191 kts | 319° |
| 2026-04-30 12:43 | 54.47459 | -1.47890 | 2714 ft | 171 kts | 312° |
| 2026-04-30 12:43 | 54.48233 | -1.49345 | 2422 ft | 160 kts | 309° |
| 2026-04-30 12:43 | 54.48955 | -1.50817 | 2249 ft | 161 kts | 307° |
| 2026-04-30 12:43 | 54.49661 | -1.52255 | 2167 ft | 154 kts | 313° |
| 2026-04-30 12:44 | 54.50515 | -1.52817 | 2267 ft | 132 kts | 1° |
| 2026-04-30 12:44 | 54.51475 | -1.53274 | 2043 ft | 151 kts | 334° |
| 2026-04-30 12:44 | 54.52188 | -1.54485 | 2026 ft | 137 kts | 296° |
| 2026-04-30 12:44 | 54.52401 | -1.55996 | 2032 ft | 127 kts | 261° |
| 2026-04-30 12:45 | 54.52134 | -1.57342 | 1996 ft | 116 kts | 230° |
| 2026-04-30 12:45 | 54.51728 | -1.58547 | 2020 ft | 114 kts | 227° |
| 2026-04-30 12:45 | 54.51303 | -1.59673 | 2050 ft | 114 kts | 223° |
| 2026-04-30 12:45 | 54.50849 | -1.60802 | 2093 ft | 114 kts | 223° |
| 2026-04-30 12:46 | 54.50311 | -1.61672 | 2088 ft | 97 kts | 183° |
| 2026-04-30 12:46 | 54.49720 | -1.61550 | 2107 ft | 81 kts | 140° |
| 2026-04-30 12:46 | 54.49256 | -1.60980 | 2087 ft | 83 kts | 135° |
| 2026-04-30 12:46 | 54.48804 | -1.60304 | 2014 ft | 87 kts | 138° |
| 2026-04-30 12:47 | 54.48376 | -1.59672 | 2053 ft | 79 kts | 133° |
| 2026-04-30 12:47 | 54.47965 | -1.59003 | 1973 ft | 81 kts | 134° |
| 2026-04-30 12:47 | 54.47561 | -1.58366 | 1824 ft | 76 kts | 131° |
| 2026-04-30 12:47 | 54.47169 | -1.57729 | 1651 ft | 77 kts | 132° |
| 2026-04-30 12:48 | 54.46802 | -1.57167 | 1603 ft | 69 kts | 133° |
| 2026-04-30 12:48 | 54.46440 | -1.56639 | 1562 ft | 71 kts | 131° |
| 2026-04-30 12:48 | 54.46079 | -1.56048 | 1649 ft | 73 kts | 132° |
| 2026-04-30 12:48 | 54.45699 | -1.55484 | 1704 ft | 72 kts | 133° |
| 2026-04-30 12:49 | 54.45425 | -1.54838 | 1690 ft | 65 kts | 106° |
| 2026-04-30 12:49 | 54.45456 | -1.54060 | 1619 ft | 67 kts | 85° |
| 2026-04-30 12:49 | 54.45678 | -1.53338 | 1611 ft | 73 kts | 76° |
| 2026-04-30 12:49 | 54.45930 | -1.52524 | 1664 ft | 79 kts | 77° |
| 2026-04-30 12:50 | 54.46329 | -1.51697 | 1486 ft | 102 kts | 51° |
| 2026-04-30 12:50 | 54.46834 | -1.50908 | 1293 ft | 93 kts | 57° |
| 2026-04-30 12:50 | 54.47219 | -1.50074 | 1132 ft | 87 kts | 65° |
| 2026-04-30 12:50 | 54.47587 | -1.49265 | 977 ft | 86 kts | 63° |
| 2026-04-30 12:51 | 54.47984 | -1.48516 | 843 ft | 84 kts | 53° |
| 2026-04-30 12:51 | 54.48409 | -1.47825 | 671 ft | 85 kts | 53° |
| 2026-04-30 12:51 | 54.48808 | -1.47126 | 587 ft | 78 kts | 69° |
| 2026-04-30 12:51 | 54.49108 | -1.46406 | 571 ft | 79 kts | 54° |
| 2026-04-30 12:52 | 54.49493 | -1.45684 | 399 ft | 83 kts | 69° |
| 2026-04-30 12:52 | 54.49911 | -1.44890 | 282 ft | 90 kts | 62° |
| 2026-04-30 12:52 | 54.50347 | -1.44045 | 158 ft | 100 kts | 58° |
| 2026-04-30 12:52 | 54.50707 | -1.43361 | 123 ft | 51 kts | 74° |
| 2026-04-30 12:53 | 54.50887 | -1.42986 | 122 ft | 36 kts | 51° |
| 2026-04-30 12:53 | 54.51016 | -1.42772 | 120 ft | 10 kts | 21° |
| 2026-04-30 12:53 | 54.51054 | -1.42820 | 121 ft | 8 kts | 294° |
| 2026-04-30 12:53 | 54.51060 | -1.42916 | 122 ft | 9 kts | 271° |
| 2026-04-30 12:54 | 54.51060 | -1.42942 | 122 ft | 0 kts | 271° |